Time;durP1;ratioP1;P1;durP2;ratioP2;P2;SDS_P1;SDS_P2;PMS_P1;PMS_P2;Temp;Humidity;BMP_temperature;BMP_pressure;BME280_temperature;BME280_humidity;BME280_pressure;Samples;Min_cycle;Max_cycle;Signal;HPM_P1;HPM_P2
2023/05/14 00:02:25;;;;;;;11.77;9.40;;;12.20;16.00;;;;;;7370030;19;20485;-70
2023/05/14 00:04:55;;;;;;;10.50;9.05;;;12.20;16.10;;;;;;7369385;19;20030;-69
2023/05/14 00:07:29;;;;;;;11.65;8.43;;;12.10;16.40;;;;;;7368054;19;20015;-70
2023/05/14 00:09:59;;;;;;;13.07;9.90;;;12.10;16.60;;;;;;7367893;19;20010;-70
2023/05/14 00:12:29;;;;;;;12.77;9.15;;;12.00;17.40;;;;;;7389818;19;20039;-70
2023/05/14 00:14:59;;;;;;;11.00;9.70;;;12.00;17.70;;;;;;7368813;19;20081;-70
2023/05/14 00:17:32;;;;;;;11.05;9.15;;;12.00;18.10;;;;;;7367273;19;20007;-70
2023/05/14 00:20:02;;;;;;;12.57;8.88;;;12.00;18.50;;;;;;7367207;19;20014;-71
2023/05/14 00:22:32;;;;;;;10.52;9.02;;;11.90;19.00;;;;;;7369144;19;20074;-70
2023/05/14 00:25:02;;;;;;;10.77;9.20;;;11.80;19.50;;;;;;7368555;19;20014;-70
2023/05/14 00:27:32;;;;;;;10.98;9.70;;;11.80;19.80;;;;;;7378236;19;20043;-70
2023/05/14 00:30:02;;;;;;;12.43;10.90;;;11.70;20.30;;;;;;7388998;19;20094;-70
2023/05/14 00:32:35;;;;;;;12.02;10.73;;;11.70;20.90;;;;;;7367701;19;20010;-70
2023/05/14 00:35:06;;;;;;;13.32;10.50;;;11.70;21.30;;;;;;7366815;19;20135;-71
2023/05/14 00:37:36;;;;;;;14.88;10.27;;;11.60;21.70;;;;;;7366110;19;20011;-71
2023/05/14 00:40:10;;;;;;;10.85;9.70;;;11.60;21.30;;;;;;7367688;19;20010;-71
2023/05/14 00:42:40;;;;;;;12.10;10.27;;;11.50;22.20;;;;;;7369401;19;20022;-71
2023/05/14 00:45:11;;;;;;;13.88;11.02;;;11.40;22.90;;;;;;7393705;19;20474;-71
2023/05/14 00:47:44;;;;;;;12.35;10.75;;;11.50;23.30;;;;;;7374499;19;20036;-71
2023/05/14 00:50:15;;;;;;;12.63;11.00;;;11.40;23.30;;;;;;7373711;19;20026;-71
2023/05/14 00:52:45;;;;;;;13.55;10.50;;;11.40;23.80;;;;;;7375598;19;20035;-71
2023/05/14 00:55:17;;;;;;;13.02;10.80;;;11.40;23.80;;;;;;7376483;19;20018;-71
2023/05/14 00:57:48;;;;;;;14.60;11.02;;;11.30;24.20;;;;;;7374578;19;20034;-71
2023/05/14 01:00:19;;;;;;;13.73;11.43;;;11.30;25.10;;;;;;7395514;19;20018;-71
2023/05/14 01:02:51;;;;;;;13.70;10.35;;;11.30;26.00;;;;;;7375372;19;20502;-71
2023/05/14 01:05:22;;;;;;;11.77;10.40;;;11.20;26.20;;;;;;7375354;19;20063;-71
2023/05/14 01:08:05;;;;;;;13.32;10.60;;;11.10;26.20;;;;;;7373893;19;20081;-71
2023/05/14 01:10:46;;;;;;;13.38;11.98;;;11.10;27.20;;;;;;7374269;19;20059;-71
2023/05/14 01:13:24;;;;;;;13.27;11.48;;;11.10;27.50;;;;;;7373929;19;20010;-69
2023/05/14 01:15:57;;;;;;;12.50;11.05;;;11.00;28.20;;;;;;7374453;19;20010;-70
2023/05/14 01:18:30;;;;;;;12.10;10.90;;;10.90;28.30;;;;;;7397090;19;20015;-70
2023/05/14 01:21:00;;;;;;;15.18;12.38;;;10.90;29.50;;;;;;7344312;19;20043;-71
2023/05/14 01:23:33;;;;;;;13.38;11.75;;;10.90;29.80;;;;;;7374048;19;20018;-70
2023/05/14 01:26:03;;;;;;;16.35;11.63;;;10.80;30.20;;;;;;7374160;19;20053;-70
2023/05/14 01:28:36;;;;;;;12.27;10.65;;;10.70;30.10;;;;;;7375001;19;20019;-70
2023/05/14 01:31:11;;;;;;;15.52;12.18;;;10.70;30.20;;;;;;7371519;19;20380;-71
2023/05/14 01:33:43;;;;;;;16.38;11.80;;;10.70;30.80;;;;;;7374146;19;20010;-70
2023/05/14 01:36:14;;;;;;;14.45;11.73;;;10.60;31.30;;;;;;7395187;19;20026;-70
2023/05/14 01:38:48;;;;;;;15.98;11.35;;;10.60;31.60;;;;;;7374059;19;20002;-70
2023/05/14 01:41:20;;;;;;;14.15;12.00;;;10.60;31.70;;;;;;7373780;19;20007;-70
2023/05/14 01:43:50;;;;;;;14.60;11.20;;;10.50;32.00;;;;;;7373884;19;20522;-71
2023/05/14 01:46:22;;;;;;;14.27;12.38;;;10.40;31.60;;;;;;7372930;19;20463;-71
2023/05/14 01:48:53;;;;;;;16.42;12.45;;;10.40;33.10;;;;;;7374789;19;20083;-71
2023/05/14 01:51:23;;;;;;;17.63;12.57;;;10.40;34.10;;;;;;7395124;19;20088;-70
2023/05/14 01:53:55;;;;;;;13.30;12.00;;;10.40;33.80;;;;;;7373338;19;20406;-70
2023/05/14 01:56:25;;;;;;;16.25;12.70;;;10.40;34.10;;;;;;7370414;19;20020;-70
2023/05/14 01:58:55;;;;;;;16.38;13.45;;;10.40;35.30;;;;;;7373734;19;20516;-70
2023/05/14 02:01:25;;;;;;;13.60;12.05;;;10.40;35.90;;;;;;7373364;19;20030;-71
2023/05/14 02:03:55;;;;;;;17.38;12.35;;;10.30;36.60;;;;;;7373255;19;20030;-70
2023/05/14 02:06:25;;;;;;;15.70;12.65;;;10.30;36.70;;;;;;7394496;19;20018;-70
2023/05/14 02:08:58;;;;;;;17.55;12.30;;;10.20;37.20;;;;;;7373075;19;20081;-70
2023/05/14 02:11:28;;;;;;;16.08;13.15;;;10.20;37.10;;;;;;7372743;19;20027;-70
2023/05/14 02:13:58;;;;;;;15.30;13.02;;;10.10;37.10;;;;;;7372004;19;20015;-70
2023/05/14 02:16:28;;;;;;;14.55;13.02;;;10.10;37.30;;;;;;7372445;19;20062;-70
2023/05/14 02:18:58;;;;;;;15.80;13.55;;;10.10;38.10;;;;;;7373163;19;20038;-70
2023/05/14 02:21:28;;;;;;;15.05;13.25;;;10.10;38.40;;;;;;7394596;19;20035;-70
2023/05/14 02:24:00;;;;;;;16.42;12.75;;;10.00;37.20;;;;;;7372829;19;20491;-70
2023/05/14 02:26:30;;;;;;;18.88;12.95;;;10.00;38.50;;;;;;7369306;19;20006;-70
2023/05/14 02:29:00;;;;;;;15.07;13.07;;;9.90;39.50;;;;;;7372544;19;20031;-70
2023/05/14 02:31:30;;;;;;;15.88;13.98;;;10.00;39.70;;;;;;7373029;19;20368;-70
2023/05/14 02:34:00;;;;;;;17.40;13.25;;;10.00;40.70;;;;;;7369939;19;20007;-70
2023/05/14 02:36:30;;;;;;;17.42;12.25;;;10.00;41.20;;;;;;7393773;19;20374;-70
2023/05/14 02:39:03;;;;;;;14.68;12.88;;;10.00;41.20;;;;;;7372876;19;20422;-70
2023/05/14 02:41:33;;;;;;;15.75;12.45;;;9.90;42.10;;;;;;7372271;19;20070;-70
2023/05/14 02:44:03;;;;;;;16.98;13.25;;;9.90;42.10;;;;;;7372034;19;20818;-71
2023/05/14 02:46:33;;;;;;;15.88;13.02;;;9.90;42.10;;;;;;7371200;19;20011;-70
2023/05/14 02:49:03;;;;;;;13.52;12.05;;;9.80;42.00;;;;;;7371773;19;20396;-70
2023/05/14 02:51:33;;;;;;;14.57;12.32;;;9.80;42.00;;;;;;7372304;19;20582;-70
2023/05/14 02:54:06;;;;;;;14.25;11.93;;;9.80;42.20;;;;;;7392012;19;20006;-70
2023/05/14 02:56:36;;;;;;;15.07;12.60;;;9.80;42.40;;;;;;7370171;19;20060;-70
2023/05/14 02:59:06;;;;;;;14.30;11.70;;;9.90;42.30;;;;;;7371146;19;20074;-70
2023/05/14 03:01:36;;;;;;;16.85;11.88;;;9.90;42.10;;;;;;7371422;19;20473;-71
2023/05/14 03:04:07;;;;;;;14.45;12.05;;;9.90;42.30;;;;;;7370972;19;20007;-70
2023/05/14 03:06:37;;;;;;;13.75;11.25;;;9.90;41.30;;;;;;7370720;19;20459;-70
2023/05/14 03:09:09;;;;;;;14.90;11.00;;;10.00;41.00;;;;;;7390438;19;20006;-70
2023/05/14 03:11:39;;;;;;;12.18;10.63;;;10.00;39.60;;;;;;7370384;19;20541;-70
2023/05/14 03:14:09;;;;;;;13.43;10.70;;;10.00;39.30;;;;;;7370088;19;20010;-70
2023/05/14 03:16:41;;;;;;;12.82;10.32;;;10.00;39.70;;;;;;7370484;19;20010;-70
2023/05/14 03:19:11;;;;;;;13.38;10.88;;;10.10;39.40;;;;;;7370789;19;20050;-70
2023/05/14 03:21:41;;;;;;;13.25;10.35;;;10.10;38.80;;;;;;7393892;19;20355;-70
2023/05/14 03:24:13;;;;;;;11.43;10.13;;;10.10;38.30;;;;;;7366348;19;20017;-70
2023/05/14 03:26:43;;;;;;;12.43;10.55;;;10.10;37.90;;;;;;7370106;19;20031;-70
2023/05/14 03:29:16;;;;;;;13.27;10.75;;;10.10;37.40;;;;;;7370604;19;20542;-70
2023/05/14 03:31:46;;;;;;;12.07;10.40;;;10.10;37.10;;;;;;7371354;19;20065;-70
2023/05/14 03:34:16;;;;;;;12.95;10.27;;;10.10;37.80;;;;;;7369706;19;20026;-71
2023/05/14 03:36:46;;;;;;;14.20;11.05;;;10.10;37.10;;;;;;7370208;19;20454;-69
2023/05/14 03:39:20;;;;;;;12.95;11.00;;;10.10;37.10;;;;;;7392513;19;20391;-70
2023/05/14 03:41:50;;;;;;;15.67;10.53;;;10.10;37.10;;;;;;7370733;19;20019;-71
2023/05/14 03:44:20;;;;;;;11.32;9.85;;;10.10;37.20;;;;;;7370179;19;20330;-71
2023/05/14 03:46:49;;;;;;;11.85;10.13;;;10.10;37.00;;;;;;7369101;19;20026;-71
2023/05/14 03:49:19;;;;;;;12.23;9.30;;;10.10;36.70;;;;;;7370971;19;20016;-71
2023/05/14 03:51:49;;;;;;;11.27;9.60;;;10.20;37.20;;;;;;7371032;19;20029;-71
2023/05/14 03:54:22;;;;;;;11.35;10.07;;;10.20;36.20;;;;;;7391103;19;20010;-71
2023/05/14 03:56:52;;;;;;;12.57;10.25;;;10.20;36.30;;;;;;7368759;19;20022;-71
2023/05/14 03:59:21;;;;;;;13.05;10.30;;;10.30;36.30;;;;;;7369776;19;20010;-71
2023/05/14 04:01:52;;;;;;;11.23;9.55;;;10.30;35.70;;;;;;7370657;19;20011;-71
2023/05/14 04:04:21;;;;;;;11.88;9.93;;;10.30;35.20;;;;;;7370944;19;20010;-71
2023/05/14 04:06:51;;;;;;;12.25;10.05;;;10.30;33.00;;;;;;7369219;19;20474;-71
2023/05/14 04:09:24;;;;;;;11.50;10.30;;;10.20;34.10;;;;;;7391525;19;20014;-71
2023/05/14 04:11:54;;;;;;;11.57;9.32;;;10.30;33.30;;;;;;7369715;19;20020;-71
2023/05/14 04:14:24;;;;;;;11.85;10.07;;;10.30;34.70;;;;;;7368155;19;20496;-70
2023/05/14 04:16:54;;;;;;;10.50;9.32;;;10.30;35.00;;;;;;7369416;19;20442;-70
2023/05/14 04:19:23;;;;;;;10.90;9.55;;;10.20;35.50;;;;;;7368151;19;20466;-71
2023/05/14 04:21:53;;;;;;;11.18;9.95;;;10.20;35.60;;;;;;7391910;19;20034;-70
2023/05/14 04:24:26;;;;;;;14.13;10.07;;;10.20;35.90;;;;;;7369282;19;20013;-70
2023/05/14 04:26:56;;;;;;;14.05;10.82;;;10.30;36.30;;;;;;7367546;19;20014;-70
2023/05/14 04:29:26;;;;;;;11.07;9.85;;;10.20;35.60;;;;;;7368653;19;20015;-70
2023/05/14 04:31:56;;;;;;;11.63;9.98;;;10.20;35.60;;;;;;7369950;19;20468;-70
2023/05/14 04:34:25;;;;;;;12.75;10.43;;;10.20;35.60;;;;;;7368171;19;20014;-70
2023/05/14 04:36:55;;;;;;;10.98;9.70;;;10.10;36.10;;;;;;7368365;19;20022;-71
2023/05/14 04:39:28;;;;;;;15.32;10.32;;;10.20;35.40;;;;;;7390722;19;20018;-71
2023/05/14 04:41:58;;;;;;;12.50;10.80;;;10.20;35.80;;;;;;7368805;19;20031;-68
2023/05/14 04:44:27;;;;;;;12.52;9.93;;;10.20;35.10;;;;;;7368448;19;20007;-70
2023/05/14 04:46:57;;;;;;;12.13;10.02;;;10.30;34.70;;;;;;7367933;19;20007;-70
2023/05/14 04:49:27;;;;;;;14.18;9.88;;;10.40;34.40;;;;;;7367660;19;20014;-70
2023/05/14 04:51:57;;;;;;;16.17;10.10;;;10.40;33.30;;;;;;7368798;19;20015;-71
2023/05/14 04:54:30;;;;;;;13.13;9.88;;;10.30;32.80;;;;;;7389288;19;20082;-70
2023/05/14 04:57:02;;;;;;;12.77;9.48;;;10.30;31.50;;;;;;7367000;19;20017;-70
2023/05/14 04:59:32;;;;;;;10.23;8.95;;;10.20;32.30;;;;;;7366867;19;20021;-70
2023/05/14 05:02:02;;;;;;;13.30;9.52;;;10.30;33.00;;;;;;7368146;19;20507;-70
2023/05/14 05:04:32;;;;;;;11.07;9.20;;;10.30;32.80;;;;;;7368397;19;20021;-70
2023/05/14 05:07:02;;;;;;;12.20;10.02;;;10.20;32.20;;;;;;7367219;19;20223;-70
2023/05/14 05:09:34;;;;;;;11.93;10.02;;;10.20;32.90;;;;;;7389911;19;20026;-70
2023/05/14 05:12:04;;;;;;;12.13;9.55;;;10.30;31.90;;;;;;7368142;19;20018;-71
2023/05/14 05:14:34;;;;;;;11.38;9.32;;;10.20;30.80;;;;;;7365839;19;20007;-71
2023/05/14 05:17:05;;;;;;;11.63;9.00;;;10.20;31.80;;;;;;7365590;19;20038;-71
2023/05/14 05:19:35;;;;;;;11.90;9.43;;;10.10;32.40;;;;;;7366963;19;20013;-70
2023/05/14 05:22:13;;;;;;;11.13;9.18;;;10.20;30.90;;;;;;7369184;19;20026;-69
2023/05/14 05:24:45;;;;;;;10.57;9.25;;;10.40;31.70;;;;;;7390527;19;20003;-71
2023/05/14 05:27:19;;;;;;;16.27;11.50;;;10.20;27.80;;;;;;7367309;19;20082;-70
2023/05/14 05:29:49;;;;;;;10.43;8.73;;;10.40;28.90;;;;;;7365480;19;20007;-70
2023/05/14 05:32:19;;;;;;;11.38;8.48;;;10.40;28.40;;;;;;7373382;19;19998;-70
2023/05/14 05:34:50;;;;;;;11.23;8.93;;;10.40;27.50;;;;;;7373877;19;20371;-71
2023/05/14 05:37:20;;;;;;;11.82;8.60;;;10.50;27.30;;;;;;7373549;19;20423;-70
2023/05/14 05:39:53;;;;;;;10.45;8.50;;;10.50;27.90;;;;;;7395417;19;20102;-71
2023/05/14 05:42:22;;;;;;;11.45;8.90;;;10.60;27.20;;;;;;7376150;19;20358;-69
2023/05/14 05:44:52;;;;;;;11.75;8.48;;;10.70;26.00;;;;;;7374920;19;20470;-70
2023/05/14 05:47:22;;;;;;;11.38;8.63;;;10.60;25.90;;;;;;7373997;19;20826;-70
2023/05/14 05:49:52;;;;;;;11.10;7.90;;;10.80;25.60;;;;;;7373659;19;20491;-70
2023/05/14 05:52:22;;;;;;;12.77;9.73;;;10.80;23.60;;;;;;7376484;19;20015;-70
2023/05/14 05:54:55;;;;;;;11.55;8.80;;;10.70;25.10;;;;;;7395845;19;20017;-70
2023/05/14 05:57:26;;;;;;;12.05;8.48;;;10.80;23.80;;;;;;7374593;19;20014;-71
2023/05/14 05:59:55;;;;;;;10.85;8.77;;;10.90;22.40;;;;;;7371652;19;20018;-71
2023/05/14 06:02:25;;;;;;;13.95;8.63;;;10.90;23.20;;;;;;7373531;19;20025;-70
2023/05/14 06:04:56;;;;;;;10.48;8.10;;;11.20;21.90;;;;;;7389105;19;20051;-71
2023/05/14 06:07:26;;;;;;;11.02;8.73;;;11.10;19.20;;;;;;7405392;19;20018;-70
2023/05/14 06:09:58;;;;;;;10.75;8.45;;;11.30;21.50;;;;;;7407548;19;20017;-72
2023/05/14 06:12:28;;;;;;;9.50;8.00;;;11.30;20.90;;;;;;7396864;19;20002;-71
2023/05/14 06:14:58;;;;;;;9.52;7.95;;;11.30;16.60;;;;;;7371402;19;20015;-70
2023/05/14 06:17:28;;;;;;;9.32;7.57;;;11.40;18.60;;;;;;7371911;19;20014;-70
2023/05/14 06:19:58;;;;;;;10.93;8.25;;;11.40;16.90;;;;;;7371667;19;20354;-70
2023/05/14 06:22:28;;;;;;;9.25;7.85;;;11.40;16.40;;;;;;7372448;19;20367;-70
2023/05/14 06:25:01;;;;;;;9.52;8.27;;;11.60;17.20;;;;;;7373247;19;20018;-71
2023/05/14 06:27:31;;;;;;;9.00;8.07;;;11.70;15.00;;;;;;7394781;19;20014;-70
2023/05/14 06:30:01;;;;;;;10.85;8.32;;;11.80;14.10;;;;;;7370222;19;20010;-70
2023/05/14 06:32:31;;;;;;;10.07;8.02;;;11.90;14.50;;;;;;7373940;19;20007;-70
2023/05/14 06:35:01;;;;;;;11.20;8.77;;;12.00;11.40;;;;;;7372004;19;20035;-71
2023/05/14 06:37:31;;;;;;;11.00;8.52;;;11.80;10.00;;;;;;7371689;19;20034;-71
2023/05/14 06:40:04;;;;;;;10.60;8.05;;;11.50;14.30;;;;;;7371654;19;20018;-72
2023/05/14 06:42:34;;;;;;;9.55;8.30;;;11.70;14.30;;;;;;7394714;19;20025;-71
2023/05/14 06:45:04;;;;;;;14.68;9.45;;;11.80;14.00;;;;;;7370981;19;20034;-70
2023/05/14 06:47:34;;;;;;;10.75;8.48;;;12.00;12.80;;;;;;7371363;19;20462;-70
2023/05/14 06:50:04;;;;;;;10.88;8.52;;;12.00;10.10;;;;;;7370769;19;20466;-71
2023/05/14 06:52:34;;;;;;;10.93;8.40;;;12.00;11.10;;;;;;7373422;19;20033;-71
2023/05/14 06:55:07;;;;;;;11.15;9.05;;;12.20;9.80;;;;;;7370961;19;20352;-71
2023/05/14 06:57:37;;;;;;;12.70;8.75;;;11.90;8.20;;;;;;7393986;19;20014;-71
2023/05/14 07:00:10;;;;;;;10.50;8.93;;;12.20;9.30;;;;;;7370474;19;20014;-71
2023/05/14 07:02:40;;;;;;;11.35;9.25;;;12.50;7.40;;;;;;7371897;19;20467;-70
2023/05/14 07:05:11;;;;;;;9.95;8.43;;;12.20;7.10;;;;;;7369570;19;20490;-70
2023/05/14 07:07:41;;;;;;;10.18;8.65;;;12.30;8.70;;;;;;7371359;19;20055;-71
2023/05/14 07:10:14;;;;;;;11.70;8.60;;;12.40;8.40;;;;;;7370245;19;20019;-70
2023/05/14 07:12:44;;;;;;;11.15;9.13;;;13.00;5.40;;;;;;7394789;19;20023;-71
2023/05/14 07:15:14;;;;;;;10.45;8.07;;;12.30;1.90;;;;;;7369574;19;20026;-71
2023/05/14 07:17:44;;;;;;;9.27;8.10;;;13.10;5.10;;;;;;7371713;19;20026;-70
2023/05/14 07:20:15;;;;;;;9.18;7.70;;;13.30;1.00;;;;;;7369718;19;20019;-70
2023/05/14 07:22:44;;;;;;;11.95;8.60;;;13.90;1.00;;;;;;7372452;19;20378;-72
2023/05/14 07:25:17;;;;;;;9.68;8.00;;;13.80;1.00;;;;;;7369985;19;20368;-70
2023/05/14 07:27:47;;;;;;;9.93;8.40;;;14.10;1.00;;;;;;7393573;19;20029;-71
2023/05/14 07:30:17;;;;;;;9.75;7.90;;;14.10;1.00;;;;;;7369522;19;20863;-72
2023/05/14 07:32:47;;;;;;;12.02;8.23;;;14.50;1.00;;;;;;7372234;19;20013;-70
2023/05/14 07:35:17;;;;;;;10.90;7.63;;;14.80;1.00;;;;;;7368907;19;20010;-70
2023/05/14 07:37:47;;;;;;;9.82;8.15;;;15.50;1.00;;;;;;7371789;19;20549;-70
2023/05/14 07:40:21;;;;;;;11.82;8.07;;;15.30;1.00;;;;;;7369916;19;20109;-71
2023/05/14 07:42:51;;;;;;;8.70;7.80;;;16.00;1.00;;;;;;7393043;19;20006;-71
2023/05/14 07:45:21;;;;;;;11.50;8.40;;;16.10;1.00;;;;;;7369479;19;20010;-71
2023/05/14 07:47:51;;;;;;;11.02;8.52;;;15.80;1.00;;;;;;7369889;19;20019;-70
2023/05/14 07:50:21;;;;;;;8.38;7.50;;;15.40;1.00;;;;;;7368412;19;20010;-72
2023/05/14 07:52:51;;;;;;;10.00;8.13;;;15.50;1.00;;;;;;7371482;19;20002;-70
2023/05/14 07:55:24;;;;;;;9.27;7.65;;;14.90;1.00;;;;;;7366142;19;20047;-71
2023/05/14 07:57:54;;;;;;;12.18;8.57;;;14.70;1.00;;;;;;7374602;19;20085;-71
2023/05/14 08:00:24;;;;;;;11.73;8.07;;;14.40;1.00;;;;;;7390280;19;20011;-71
2023/05/14 08:02:54;;;;;;;11.60;8.00;;;14.40;1.00;;;;;;7370147;19;20470;-71
2023/05/14 08:05:25;;;;;;;10.07;8.07;;;14.70;1.00;;;;;;7366277;19;20040;-70
2023/05/14 08:07:55;;;;;;;10.13;8.23;;;14.50;1.00;;;;;;7370291;19;20013;-71
2023/05/14 08:10:28;;;;;;;9.93;7.95;;;14.80;1.00;;;;;;7368200;19;20010;-70
2023/05/14 08:12:58;;;;;;;12.20;8.38;;;15.00;1.00;;;;;;7369645;19;20074;-69
2023/05/14 08:15:28;;;;;;;8.63;7.72;;;15.20;1.00;;;;;;7388884;19;20350;-71
2023/05/14 08:18:02;;;;;;;11.60;8.10;;;14.80;1.00;;;;;;7369160;19;20002;-71
2023/05/14 08:20:32;;;;;;;10.40;8.18;;;15.20;1.00;;;;;;7367260;19;20127;-71
2023/05/14 08:23:02;;;;;;;10.38;8.63;;;15.40;1.00;;;;;;7370080;19;20545;-71
2023/05/14 08:25:35;;;;;;;9.73;8.27;;;14.60;1.00;;;;;;7368379;19;20025;-70
2023/05/14 08:28:05;;;;;;;9.93;8.75;;;15.30;1.00;;;;;;7368776;19;20014;-71
2023/05/14 08:30:35;;;;;;;9.55;8.30;;;15.30;1.00;;;;;;7389573;19;20010;-71
2023/05/14 08:33:05;;;;;;;10.57;8.57;;;15.40;1.00;;;;;;7369351;19;20089;-71
2023/05/14 08:35:35;;;;;;;11.00;9.20;;;15.60;1.00;;;;;;7367241;19;20010;-70
2023/05/14 08:38:08;;;;;;;10.20;8.70;;;15.60;1.00;;;;;;7367986;19;20010;-70
2023/05/14 08:40:40;;;;;;;9.95;8.88;;;15.50;1.00;;;;;;7368267;19;20018;-71
2023/05/14 08:43:13;;;;;;;9.50;8.23;;;15.00;1.00;;;;;;7370164;19;20019;-70
2023/05/14 08:45:43;;;;;;;10.23;9.00;;;14.80;1.00;;;;;;7390581;19;20344;-71
2023/05/14 08:48:18;;;;;;;13.68;9.85;;;15.80;1.00;;;;;;7369079;19;20349;-70
2023/05/14 08:50:48;;;;;;;10.38;8.48;;;16.00;1.00;;;;;;7366596;19;20506;-71
2023/05/14 08:53:18;;;;;;;11.40;9.50;;;16.50;1.00;;;;;;7369878;19;20011;-71
2023/05/14 08:55:52;;;;;;;12.15;10.10;;;15.40;1.00;;;;;;7367057;19;20015;-71
2023/05/14 08:58:24;;;;;;;;;;;15.90;1.00;;;;;;7368970;19;20011;-71
2023/05/14 09:00:55;;;;;;;11.25;9.27;;;16.10;1.00;;;;;;7374128;19;19910;-71
2023/05/14 09:03:25;;;;;;;10.75;9.55;;;16.30;1.00;;;;;;7389652;19;20002;-71
2023/05/14 09:05:56;;;;;;;10.65;9.18;;;16.10;1.00;;;;;;7366291;19;20034;-71
2023/05/14 09:08:28;;;;;;;12.25;9.57;;;16.50;1.00;;;;;;7375708;19;20014;-70
2023/05/14 09:11:01;;;;;;;9.93;8.85;;;16.40;1.00;;;;;;7374459;19;20537;-70
2023/05/14 09:13:31;;;;;;;11.35;8.70;;;16.80;1.00;;;;;;7373433;19;20014;-71
2023/05/14 09:16:02;;;;;;;9.93;8.45;;;17.20;1.00;;;;;;7373723;19;20010;-70
2023/05/14 09:18:32;;;;;;;12.23;9.20;;;17.50;1.00;;;;;;7397438;19;20023;-70
2023/05/14 09:21:03;;;;;;;12.10;9.75;;;17.30;1.00;;;;;;7374787;19;20015;-70
2023/05/14 09:23:34;;;;;;;11.07;9.02;;;17.10;1.00;;;;;;7375918;19;20038;-70
2023/05/14 09:26:08;;;;;;;10.77;8.27;;;17.10;1.00;;;;;;7375391;19;20018;-71
2023/05/14 09:28:42;;;;;;;11.88;8.93;;;17.60;1.00;;;;;;7376191;19;20031;-71
2023/05/14 09:31:12;;;;;;;10.60;8.65;;;17.40;1.00;;;;;;7374523;19;20027;-71
2023/05/14 09:33:42;;;;;;;10.82;8.77;;;17.20;1.00;;;;;;7397285;19;20030;-71
2023/05/14 09:36:12;;;;;;;9.50;8.10;;;17.00;1.00;;;;;;7374266;19;20023;-71
2023/05/14 09:38:42;;;;;;;9.45;7.43;;;17.60;1.00;;;;;;7376117;19;20006;-71
2023/05/14 09:41:15;;;;;;;9.20;7.50;;;18.50;1.00;;;;;;7392728;19;20360;-72
2023/05/14 09:43:45;;;;;;;8.85;7.95;;;18.30;1.00;;;;;;7392558;19;20046;-71
2023/05/14 09:46:14;;;;;;;9.10;7.20;;;17.70;1.00;;;;;;7386346;19;20008;-73
2023/05/14 09:48:44;;;;;;;9.65;8.02;;;17.80;1.00;;;;;;7401883;19;20018;-71
2023/05/14 09:51:16;;;;;;;9.00;8.10;;;17.60;1.00;;;;;;7374726;19;20129;-72
2023/05/14 09:53:46;;;;;;;8.95;8.05;;;17.40;1.00;;;;;;7375453;19;20006;-71
2023/05/14 09:56:18;;;;;;;8.82;7.20;;;17.10;1.00;;;;;;7372121;19;20006;-71
2023/05/14 09:58:49;;;;;;;10.38;7.10;;;16.90;1.00;;;;;;7375702;19;20034;-72
2023/05/14 10:01:21;;;;;;;9.05;6.85;;;17.70;1.00;;;;;;7371864;19;20015;-71
2023/05/14 10:03:52;;;;;;;10.05;8.48;;;17.10;1.00;;;;;;7395900;19;19999;-71
2023/05/14 10:06:25;;;;;;;11.48;9.48;;;16.80;1.00;;;;;;7373375;19;20003;-71
2023/05/14 10:09:00;;;;;;;10.15;8.40;;;16.50;1.00;;;;;;7373524;19;20003;-71
2023/05/14 10:11:35;;;;;;;9.38;7.70;;;16.20;1.00;;;;;;7373247;19;20459;-71
2023/05/14 10:14:10;;;;;;;11.30;8.38;;;16.10;1.00;;;;;;7373713;19;20021;-70
2023/05/14 10:16:45;;;;;;;9.38;8.35;;;15.80;1.00;;;;;;7370730;19;20101;-73
2023/05/14 10:19:17;;;;;;;9.82;8.50;;;15.90;1.00;;;;;;7372046;19;20031;-75
2023/05/14 10:21:53;;;;;;;10.82;8.50;;;16.20;1.00;;;;;;7394209;19;20017;-72
2023/05/14 10:24:24;;;;;;;9.75;8.20;;;16.30;1.00;;;;;;7372523;19;20440;-72
2023/05/14 10:26:57;;;;;;;9.55;8.25;;;16.50;1.00;;;;;;7368046;19;20081;-72
2023/05/14 10:29:34;;;;;;;9.55;8.05;;;16.40;1.00;;;;;;7371844;19;20707;-71
2023/05/14 10:32:07;;;;;;;11.57;8.82;;;16.30;1.00;;;;;;7372712;19;20007;-69
2023/05/14 10:34:39;;;;;;;8.88;7.63;;;16.60;1.00;;;;;;7371755;19;20014;-71
2023/05/14 10:37:11;;;;;;;11.75;7.97;;;16.70;1.00;;;;;;7371945;19;20086;-71
2023/05/14 10:39:49;;;;;;;9.55;8.50;;;16.80;1.00;;;;;;7393487;19;20072;-71
2023/05/14 10:42:24;;;;;;;9.73;8.73;;;16.70;1.00;;;;;;7371931;19;20014;-71
2023/05/14 10:44:57;;;;;;;10.07;8.35;;;16.80;1.00;;;;;;7370064;19;20011;-71
2023/05/14 10:47:28;;;;;;;11.30;9.55;;;16.70;1.00;;;;;;7372045;19;20042;-71
2023/05/14 10:50:00;;;;;;;9.77;8.00;;;17.10;1.00;;;;;;7369436;19;20034;-71
2023/05/14 10:52:31;;;;;;;9.75;8.57;;;16.90;1.00;;;;;;7370496;19;20015;-72
2023/05/14 10:55:02;;;;;;;10.27;8.13;;;17.60;1.00;;;;;;7369037;19;20094;-72
2023/05/14 10:57:37;;;;;;;12.00;8.20;;;17.80;1.00;;;;;;7393035;19;20010;-72
2023/05/14 11:00:10;;;;;;;10.50;8.02;;;18.00;1.00;;;;;;7369500;19;20007;-72
2023/05/14 11:02:44;;;;;;;8.35;6.55;;;17.40;1.00;;;;;;7372033;19;20021;-71
2023/05/14 11:05:16;;;;;;;7.38;6.65;;;17.70;1.00;;;;;;7369996;19;21928;-73
2023/05/14 11:07:48;;;;;;;9.90;6.45;;;17.50;1.00;;;;;;7371672;19;20017;-72
2023/05/14 11:10:20;;;;;;;8.27;6.38;;;17.80;1.00;;;;;;7370273;19;20010;-72
2023/05/14 11:12:53;;;;;;;6.88;6.00;;;17.90;1.00;;;;;;7393272;19;20026;-71
2023/05/14 11:15:25;;;;;;;8.27;6.57;;;18.00;1.00;;;;;;7369029;19;20420;-73
2023/05/14 11:17:55;;;;;;;6.93;6.18;;;17.90;1.00;;;;;;7370084;19;20006;-72
2023/05/14 11:20:25;;;;;;;5.90;5.30;;;17.90;1.00;;;;;;7369120;19;20007;-71
2023/05/14 11:22:55;;;;;;;9.48;6.50;;;18.10;1.00;;;;;;7370480;19;20006;-72
2023/05/14 11:25:25;;;;;;;7.47;5.63;;;18.10;1.00;;;;;;7369425;19;20038;-70
2023/05/14 11:28:00;;;;;;;6.07;5.40;;;17.90;1.00;;;;;;7369282;19;20023;-71
2023/05/14 11:30:33;;;;;;;6.47;4.97;;;17.90;1.00;;;;;;7387565;19;20031;-70
2023/05/14 11:33:03;;;;;;;7.00;5.88;;;18.50;1.00;;;;;;7370963;19;20010;-72
2023/05/14 11:35:33;;;;;;;6.32;5.72;;;18.30;1.00;;;;;;7367660;19;20022;-72
2023/05/14 11:38:03;;;;;;;6.05;5.30;;;18.00;1.00;;;;;;7369573;19;20021;-70
2023/05/14 11:40:35;;;;;;;10.75;5.72;;;18.20;1.00;;;;;;7369057;19;20020;-72
2023/05/14 11:43:07;;;;;;;6.95;5.18;;;18.00;1.00;;;;;;7370566;19;20106;-72
2023/05/14 11:45:37;;;;;;;11.80;5.43;;;17.60;1.00;;;;;;7390138;19;20022;-71
2023/05/14 11:48:16;;;;;;;16.95;9.75;;;18.00;1.00;;;;;;7368029;19;20093;-71
2023/05/14 11:50:48;;;;;;;6.40;5.45;;;18.30;1.00;;;;;;7368001;19;20017;-71
2023/05/14 11:53:19;;;;;;;6.40;5.72;;;18.10;1.00;;;;;;7370865;19;20448;-73
2023/05/14 11:55:49;;;;;;;7.22;5.38;;;17.80;1.00;;;;;;7369099;19;20010;-72
2023/05/14 11:58:22;;;;;;;6.22;5.20;;;17.50;1.00;;;;;;7369344;19;20030;-71
2023/05/14 12:00:53;;;;;;;6.05;5.03;;;17.40;1.00;;;;;;7389581;19;20007;-71
2023/05/14 12:03:25;;;;;;;6.32;5.10;;;17.30;1.00;;;;;;7369514;19;20019;-73
2023/05/14 12:06:01;;;;;;;5.55;4.93;;;17.50;1.00;;;;;;7367372;19;20002;-71
2023/05/14 12:08:32;;;;;;;7.63;5.50;;;17.50;1.00;;;;;;7369026;19;20011;-72
2023/05/14 12:11:02;;;;;;;12.00;7.90;;;17.90;1.00;;;;;;7367997;19;20021;-71
2023/05/14 12:13:35;;;;;;;7.50;5.80;;;18.00;1.00;;;;;;7368205;19;20503;-72
2023/05/14 12:16:05;;;;;;;5.78;5.10;;;17.90;1.00;;;;;;7367361;19;20014;-72
2023/05/14 12:18:35;;;;;;;7.10;5.30;;;17.80;1.00;;;;;;7390424;19;20011;-71
2023/05/14 12:21:07;;;;;;;6.15;5.28;;;18.10;1.00;;;;;;7366903;19;20412;-72
2023/05/14 12:23:37;;;;;;;6.22;5.32;;;17.80;1.00;;;;;;7367681;19;20014;-72
2023/05/14 12:26:08;;;;;;;6.85;5.40;;;18.10;1.00;;;;;;7367135;19;20077;-72
2023/05/14 12:28:43;;;;;;;8.40;6.15;;;18.20;1.00;;;;;;7368925;19;20078;-71
2023/05/14 12:31:13;;;;;;;7.50;5.25;;;17.90;1.00;;;;;;7366941;19;20018;-71
2023/05/14 12:33:43;;;;;;;5.35;4.85;;;18.00;1.00;;;;;;7391046;19;20018;-72
2023/05/14 12:36:13;;;;;;;5.40;4.63;;;18.00;1.00;;;;;;7367204;19;20082;-71
2023/05/14 12:38:48;;;;;;;7.38;4.22;;;17.70;1.00;;;;;;7367654;19;20018;-72
2023/05/14 12:41:18;;;;;;;4.75;4.30;;;18.20;1.00;;;;;;7371754;19;20090;-70
2023/05/14 12:43:51;;;;;;;6.40;4.60;;;17.80;1.00;;;;;;7376012;19;20010;-71
2023/05/14 12:46:21;;;;;;;4.72;4.32;;;17.80;1.00;;;;;;7372403;19;20396;-71
2023/05/14 12:48:51;;;;;;;4.70;4.20;;;17.50;1.00;;;;;;7398037;19;20007;-71
2023/05/14 12:51:22;;;;;;;4.32;3.92;;;17.40;1.00;;;;;;7375309;19;20338;-71
2023/05/14 12:53:53;;;;;;;4.00;3.60;;;17.40;1.00;;;;;;7375004;19;20466;-70
2023/05/14 12:56:27;;;;;;;4.85;4.05;;;17.50;1.00;;;;;;7373505;19;20011;-71
2023/05/14 12:58:59;;;;;;;5.05;4.28;;;18.10;1.00;;;;;;7373429;19;20509;-71
2023/05/14 13:01:29;;;;;;;4.63;3.90;;;18.80;1.00;;;;;;7374973;19;20024;-71
2023/05/14 13:03:59;;;;;;;5.18;4.00;;;19.10;1.00;;;;;;7374467;19;20050;-70